createdAt,value
2022-11-05T00:00:18.106Z,19.53
2022-11-05T00:03:03.466Z,19.67
2022-11-05T00:05:49.869Z,20.60
2022-11-05T00:08:35.338Z,20.67
2022-11-05T00:11:02.241Z,21.23
2022-11-05T00:13:47.804Z,21.10
2022-11-05T00:16:33.117Z,21.03
2022-11-05T00:19:10.139Z,20.23
2022-11-05T00:21:58.605Z,20.57
2022-11-05T00:24:44.196Z,20.87
2022-11-05T00:27:11.514Z,19.87
2022-11-05T00:29:38.376Z,19.67
2022-11-05T00:32:05.362Z,20.23
2022-11-05T00:34:32.277Z,19.77
2022-11-05T00:36:59.375Z,20.77
2022-11-05T00:39:26.394Z,20.23
2022-11-05T00:42:11.709Z,20.30
2022-11-05T00:44:57.098Z,19.57
2022-11-05T00:47:42.316Z,20.03
2022-11-05T00:50:10.825Z,19.30
2022-11-05T00:52:57.250Z,19.77
2022-11-05T00:55:35.353Z,20.67
2022-11-05T00:58:03.678Z,21.03
2022-11-05T01:00:32.203Z,21.63
2022-11-05T01:03:05.544Z,21.87
2022-11-05T01:05:34.202Z,22.77
2022-11-05T01:08:01.193Z,22.07
2022-11-05T01:10:28.497Z,22.80
2022-11-05T01:12:55.741Z,23.20
2022-11-05T01:15:22.997Z,20.80
2022-11-05T01:17:51.509Z,21.50
2022-11-05T01:20:18.390Z,22.47
2022-11-05T01:22:45.304Z,21.03
2022-11-05T01:25:12.224Z,21.23
2022-11-05T01:27:39.498Z,22.20
2022-11-05T01:30:08.457Z,20.77
2022-11-05T01:32:36.840Z,21.33
2022-11-05T01:35:09.313Z,21.17
2022-11-05T01:37:36.432Z,20.50
2022-11-05T01:40:04.763Z,20.83
2022-11-05T01:42:32.754Z,19.27
2022-11-05T01:45:16.427Z,20.00
2022-11-05T01:47:49.631Z,20.10
2022-11-05T01:50:28.278Z,19.93
2022-11-05T01:53:06.409Z,19.97
2022-11-05T01:55:37.928Z,21.67
2022-11-05T01:58:09.663Z,21.43
2022-11-05T02:00:36.768Z,21.77
2022-11-05T02:03:04.276Z,21.90
2022-11-05T02:05:32.641Z,20.00
2022-11-05T02:07:59.990Z,22.83
2022-11-05T02:10:27.935Z,21.70
2022-11-05T02:12:54.853Z,21.27
2022-11-05T02:15:59.332Z,21.47
2022-11-05T02:18:35.450Z,20.63
2022-11-05T02:21:11.488Z,21.07
2022-11-05T02:24:00.643Z,20.10
2022-11-05T02:27:05.098Z,19.87
2022-11-05T02:30:12.245Z,19.37
2022-11-05T02:32:41.794Z,19.07
2022-11-05T02:35:29.770Z,20.10
2022-11-05T02:38:09.568Z,21.07
2022-11-05T02:40:49.602Z,20.27
2022-11-05T02:43:29.447Z,19.83
2022-11-05T02:46:17.702Z,20.87
2022-11-05T02:49:17.866Z,21.73
2022-11-05T02:51:53.350Z,21.20
2022-11-05T02:54:35.405Z,21.63
2022-11-05T02:57:04.812Z,21.13
2022-11-05T02:59:31.725Z,20.60
2022-11-05T03:02:01.737Z,20.90
2022-11-05T03:04:30.169Z,20.37
2022-11-05T03:07:23.099Z,19.47
2022-11-05T03:09:55.967Z,19.67
2022-11-05T03:12:57.611Z,18.53
2022-11-05T03:15:44.531Z,19.57
2022-11-05T03:18:32.568Z,18.83
2022-11-05T03:21:14.776Z,20.87
2022-11-05T03:24:02.556Z,20.57
2022-11-05T03:26:33.645Z,20.60
2022-11-05T03:29:09.579Z,20.27
2022-11-05T03:31:39.465Z,20.43
2022-11-05T03:34:09.093Z,22.90
2022-11-05T03:36:41.823Z,23.07
2022-11-05T03:39:15.448Z,22.57
2022-11-05T03:41:46.184Z,23.00
2022-11-05T03:44:18.815Z,22.60
2022-11-05T03:46:49.457Z,24.63
2022-11-05T03:49:24.259Z,24.47
2022-11-05T03:52:16.767Z,25.10
2022-11-05T03:54:44.238Z,25.53
2022-11-05T03:57:17.965Z,25.70
2022-11-05T03:59:47.258Z,25.47
2022-11-05T04:02:16.710Z,26.07
2022-11-05T04:04:43.892Z,28.23
2022-11-05T04:07:30.809Z,24.67
2022-11-05T04:10:16.128Z,24.97
2022-11-05T04:13:01.515Z,24.83
2022-11-05T04:15:51.433Z,21.70
2022-11-05T04:18:18.304Z,24.90
2022-11-05T04:21:03.649Z,23.67
2022-11-05T04:23:49.105Z,23.27
2022-11-05T04:26:16.037Z,24.17
2022-11-05T04:29:06.776Z,23.07
2022-11-05T04:31:34.729Z,21.13
2022-11-05T04:34:01.679Z,21.93
2022-11-05T04:36:28.908Z,21.87
2022-11-05T04:38:56.081Z,21.07
2022-11-05T04:41:23.296Z,21.13
2022-11-05T04:43:50.144Z,21.40
2022-11-05T04:46:17.057Z,21.13
2022-11-05T04:48:44.013Z,22.27
2022-11-05T04:51:10.904Z,23.97
2022-11-05T04:53:37.748Z,24.17
2022-11-05T04:56:25.214Z,24.63
2022-11-05T04:58:52.470Z,27.37
2022-11-05T05:01:22.363Z,27.03
2022-11-05T05:03:51.169Z,25.07
2022-11-05T05:06:18.848Z,26.97
2022-11-05T05:08:50.395Z,24.67
2022-11-05T05:11:20.063Z,22.07
2022-11-05T05:13:47.680Z,22.37
2022-11-05T05:16:23.081Z,20.37
2022-11-05T05:18:50.371Z,20.37
2022-11-05T05:21:37.309Z,19.73
2022-11-05T05:24:05.952Z,19.70
2022-11-05T05:26:32.799Z,17.97
2022-11-05T05:28:59.633Z,19.23
2022-11-05T05:31:26.510Z,19.73
2022-11-05T05:33:54.728Z,19.47
2022-11-05T05:36:22.493Z,20.00
2022-11-05T05:38:49.822Z,21.63
2022-11-05T05:41:17.382Z,22.73
2022-11-05T05:43:44.320Z,22.73
2022-11-05T05:46:14.404Z,25.13
2022-11-05T05:48:42.016Z,27.33
2022-11-05T05:51:11.155Z,28.20
2022-11-05T05:53:38.651Z,28.33
2022-11-05T05:56:06.482Z,27.70
2022-11-05T05:58:38.976Z,27.37
2022-11-05T06:01:10.980Z,25.80
2022-11-05T06:03:41.180Z,26.70
2022-11-05T06:16:35.992Z,29.57
2022-11-05T06:19:03.147Z,26.83
2022-11-05T06:21:29.988Z,29.07
2022-11-05T06:23:56.829Z,24.73
2022-11-05T06:26:23.616Z,23.37
2022-11-05T06:28:50.570Z,23.50
2022-11-05T06:31:17.576Z,22.47
2022-11-05T06:33:44.592Z,22.17
2022-11-05T06:36:16.116Z,24.37
2022-11-05T06:38:43.066Z,20.57
2022-11-05T06:41:10.657Z,22.13
2022-11-05T06:43:38.750Z,21.00
2022-11-05T06:46:06.030Z,21.30
2022-11-05T06:48:33.081Z,20.50
2022-11-05T06:51:00.024Z,25.97
2022-11-05T06:53:27.819Z,22.33
2022-11-05T06:55:54.899Z,21.57
2022-11-05T06:58:21.774Z,22.17
2022-11-05T07:00:48.969Z,22.17
2022-11-05T07:03:16.089Z,21.83
2022-11-05T07:05:49.003Z,26.67
2022-11-05T07:08:16.100Z,24.13
2022-11-05T07:10:43.067Z,22.40
2022-11-05T07:13:10.310Z,21.17
2022-11-05T07:15:37.782Z,22.17
2022-11-05T07:18:07.497Z,21.87
2022-11-05T07:20:34.991Z,22.00
2022-11-05T07:23:06.663Z,21.97
2022-11-05T07:25:34.587Z,21.27
2022-11-05T07:28:02.483Z,20.40
2022-11-05T07:30:30.449Z,24.60
2022-11-05T07:32:57.605Z,21.63
2022-11-05T07:35:24.727Z,27.70
2022-11-05T07:37:56.515Z,22.73
2022-11-05T07:40:25.502Z,24.10
2022-11-05T07:43:00.181Z,23.00
2022-11-05T07:45:28.683Z,23.50
2022-11-05T07:48:00.861Z,20.97
2022-11-05T07:50:30.496Z,22.17
2022-11-05T07:53:11.962Z,24.70
2022-11-05T07:55:42.094Z,25.40
2022-11-05T07:58:09.828Z,26.37
2022-11-05T08:00:36.860Z,22.70
2022-11-05T08:03:10.781Z,20.73
2022-11-05T08:05:40.636Z,22.10
2022-11-05T08:08:08.821Z,21.20
2022-11-05T08:10:36.935Z,20.93
2022-11-05T08:13:04.507Z,22.70
2022-11-05T08:15:31.469Z,25.37
2022-11-05T08:17:59.662Z,23.20
2022-11-05T08:20:26.925Z,21.53
2022-11-05T08:22:54.743Z,20.00
2022-11-05T08:25:21.897Z,22.93
2022-11-05T08:27:55.564Z,22.27
2022-11-05T08:30:22.898Z,23.70
2022-11-05T08:32:49.956Z,23.50
2022-11-05T08:35:17.228Z,23.07
2022-11-05T08:37:44.105Z,22.10
2022-11-05T08:40:11.295Z,22.73
2022-11-05T08:42:38.993Z,25.37
2022-11-05T08:45:06.330Z,21.83
2022-11-05T08:47:33.257Z,22.57
2022-11-05T08:50:00.182Z,26.70
2022-11-05T08:52:27.057Z,23.40
2022-11-05T08:54:53.926Z,25.43
2022-11-05T08:57:20.811Z,25.60
2022-11-05T08:59:47.688Z,25.40
2022-11-05T09:02:14.668Z,23.97
2022-11-05T09:04:41.758Z,23.13
2022-11-05T09:07:08.977Z,24.30
2022-11-05T09:09:35.895Z,23.10
2022-11-05T09:12:12.214Z,23.17
2022-11-05T09:14:39.719Z,23.33
2022-11-05T09:17:18.336Z,24.30
2022-11-05T09:19:45.441Z,22.77
2022-11-05T09:22:13.040Z,22.50
2022-11-05T09:24:41.113Z,23.87
2022-11-05T09:27:13.251Z,21.27
2022-11-05T09:29:41.152Z,22.93
2022-11-05T09:32:09.219Z,22.77
2022-11-05T09:34:36.540Z,21.43
2022-11-05T09:44:07.920Z,27.03
2022-11-05T09:46:43.641Z,21.13
2022-11-05T09:49:26.068Z,21.23
2022-11-05T09:51:55.219Z,21.30
2022-11-05T09:54:26.427Z,19.43
2022-11-05T09:56:55.199Z,20.80
2022-11-05T09:59:27.725Z,20.90
2022-11-05T10:02:03.247Z,20.67
2022-11-05T10:04:34.335Z,19.50
2022-11-05T10:07:05.875Z,18.87
2022-11-05T10:09:38.123Z,19.43
2022-11-05T10:15:27.626Z,21.37
2022-11-05T10:18:00.105Z,18.57
2022-11-05T10:20:33.664Z,18.97
2022-11-05T10:23:21.489Z,18.43
2022-11-05T10:25:53.748Z,18.70
2022-11-05T10:28:24.357Z,18.73
2022-11-05T10:30:57.625Z,17.20
2022-11-05T10:33:52.025Z,17.40
2022-11-05T10:36:22.304Z,17.43
2022-11-05T10:38:50.312Z,17.43
2022-11-05T10:41:34.799Z,18.90
2022-11-05T10:44:27.086Z,19.33
2022-11-05T10:47:29.226Z,17.83
2022-11-05T10:50:00.680Z,17.20
2022-11-05T10:52:34.096Z,17.97
2022-11-05T10:55:05.195Z,17.20
2022-11-05T10:57:38.436Z,18.50
2022-11-05T11:00:17.105Z,18.53
2022-11-05T11:02:47.241Z,18.57
2022-11-05T11:05:27.285Z,18.20
2022-11-05T11:08:17.459Z,18.60
2022-11-05T11:10:54.566Z,17.70
2022-11-05T11:13:27.741Z,17.73
2022-11-05T11:15:55.692Z,20.00
2022-11-05T11:18:27.332Z,17.67
2022-11-05T11:21:04.335Z,18.97
2022-11-05T11:23:37.866Z,17.03
2022-11-05T11:26:05.679Z,18.73
2022-11-05T11:28:37.563Z,17.27
2022-11-05T11:31:14.221Z,17.00
2022-11-05T11:33:44.736Z,18.20
2022-11-05T11:36:12.962Z,17.73
2022-11-05T11:38:40.674Z,18.40
2022-11-05T11:41:30.903Z,16.50
2022-11-05T11:44:12.969Z,17.90
2022-11-05T11:46:40.727Z,16.63
2022-11-05T11:49:44.908Z,17.03
2022-11-05T11:52:18.733Z,15.77
2022-11-05T11:54:45.667Z,14.60
2022-11-05T11:57:25.019Z,16.57
2022-11-05T12:00:09.637Z,14.77
2022-11-05T12:02:43.010Z,14.77
2022-11-05T12:05:30.789Z,13.57
2022-11-05T12:08:42.869Z,13.70
2022-11-05T12:11:30.963Z,12.23
2022-11-05T12:14:13.085Z,12.23
2022-11-05T12:17:08.963Z,12.13
2022-11-05T12:19:49.436Z,11.73
2022-11-05T12:22:26.722Z,11.87
2022-11-05T12:25:14.880Z,12.17
2022-11-05T12:27:44.373Z,12.10
2022-11-05T12:30:17.583Z,11.53
2022-11-05T12:33:09.327Z,9.67
2022-11-05T12:35:57.725Z,10.47
2022-11-05T12:38:52.389Z,11.07
2022-11-05T12:41:28.711Z,10.97
2022-11-05T12:44:10.195Z,10.73
2022-11-05T12:46:45.157Z,11.53
2022-11-05T12:49:33.868Z,10.23
2022-11-05T12:52:18.926Z,11.00
2022-11-05T12:55:16.785Z,9.57
2022-11-05T12:57:47.158Z,11.40
2022-11-05T13:00:20.524Z,11.10
2022-11-05T13:03:18.352Z,13.00
2022-11-05T13:06:01.500Z,11.70
2022-11-05T13:08:45.008Z,11.20
2022-11-05T13:11:21.704Z,11.13
2022-11-05T13:14:11.606Z,11.97
2022-11-05T13:17:11.649Z,11.13
2022-11-05T13:19:50.789Z,11.50
2022-11-05T13:22:42.780Z,12.10
2022-11-05T13:39:45.035Z,12.13
2022-11-05T13:42:38.834Z,12.47
2022-11-05T13:45:43.326Z,12.43
2022-11-05T13:48:28.390Z,12.80
2022-11-05T13:51:16.951Z,13.70
2022-11-05T13:54:21.490Z,14.23
2022-11-05T13:56:53.941Z,14.70
2022-11-05T13:59:38.653Z,14.50
2022-11-05T14:02:25.430Z,14.00
2022-11-05T14:05:00.695Z,14.60
2022-11-05T14:07:35.270Z,15.80
2022-11-05T14:10:21.534Z,15.33
2022-11-05T14:12:51.761Z,15.73
2022-11-05T14:15:23.359Z,15.80
2022-11-05T14:18:00.794Z,15.80
2022-11-05T14:20:30.362Z,16.63
2022-11-05T14:23:28.385Z,17.87
2022-11-05T14:25:58.080Z,18.83
2022-11-05T14:28:46.793Z,18.50
2022-11-05T14:31:19.777Z,17.50
2022-11-05T14:34:12.370Z,17.57
2022-11-05T14:36:41.379Z,17.90
2022-11-05T14:39:17.069Z,17.60
2022-11-05T14:41:54.581Z,17.53
2022-11-05T14:44:22.520Z,18.07
2022-11-05T14:46:54.078Z,17.43
2022-11-05T14:49:28.085Z,19.20
2022-11-05T14:52:00.635Z,18.77
2022-11-05T14:54:30.683Z,19.13
2022-11-05T14:57:00.536Z,18.10
2022-11-05T14:59:28.316Z,19.53
2022-11-05T15:02:13.605Z,22.63
2022-11-05T15:04:42.797Z,22.77
2022-11-05T15:07:09.580Z,25.07
2022-11-05T15:09:58.271Z,25.17
2022-11-05T15:12:30.256Z,25.20
2022-11-05T15:15:22.065Z,24.30
2022-11-05T15:18:00.723Z,27.07
2022-11-05T15:20:39.623Z,26.03
2022-11-05T15:23:12.839Z,26.30
2022-11-05T15:26:01.472Z,25.67
2022-11-05T15:28:38.570Z,25.27
2022-11-05T15:31:06.802Z,25.27
2022-11-05T15:33:33.736Z,24.63
2022-11-05T15:36:18.837Z,27.03
2022-11-05T15:39:08.183Z,27.43
2022-11-05T15:41:34.531Z,27.10
2022-11-05T15:44:02.790Z,26.03
2022-11-05T15:46:30.181Z,26.17
2022-11-05T15:49:06.529Z,26.47
2022-11-05T15:51:33.943Z,26.40
2022-11-05T15:56:56.985Z,25.63
2022-11-05T15:59:25.714Z,25.30
2022-11-05T16:02:02.039Z,26.07
2022-11-05T16:04:31.934Z,27.17
2022-11-05T16:07:09.330Z,25.63
2022-11-05T16:09:40.374Z,26.03
2022-11-05T16:12:15.278Z,27.00
2022-11-05T16:14:42.585Z,27.00
2022-11-05T16:17:24.190Z,27.57
2022-11-05T16:19:52.168Z,26.57
2022-11-05T16:22:19.822Z,23.60
2022-11-05T16:24:47.428Z,27.37
2022-11-05T16:27:20.194Z,30.43
2022-11-05T16:29:48.557Z,27.07
2022-11-05T16:32:19.669Z,27.20
2022-11-05T16:34:53.607Z,29.23
2022-11-05T16:37:23.833Z,27.77
2022-11-05T16:39:51.745Z,29.97
2022-11-05T16:42:24.842Z,28.90
2022-11-05T16:44:55.271Z,29.43
2022-11-05T16:47:22.943Z,28.37
2022-11-05T16:49:50.591Z,28.37
2022-11-05T16:52:17.883Z,28.87
2022-11-05T16:54:44.880Z,29.63
2022-11-05T16:57:23.370Z,32.47
2022-11-05T16:59:50.385Z,30.10
2022-11-05T17:02:17.524Z,29.07
2022-11-05T17:04:44.564Z,29.70
2022-11-05T17:07:11.431Z,63.77
2022-11-05T17:09:38.295Z,35.93
2022-11-05T17:12:05.418Z,29.87
2022-11-05T17:14:32.322Z,31.90
2022-11-05T17:17:02.673Z,32.60
2022-11-05T17:19:29.564Z,38.10
2022-11-05T17:21:56.469Z,59.60
2022-11-05T17:24:23.342Z,30.40
2022-11-05T17:26:50.197Z,28.63
2022-11-05T17:29:17.113Z,27.77
2022-11-05T17:31:44.085Z,27.70
2022-11-05T17:34:11.052Z,28.10
2022-11-05T17:36:37.906Z,28.73
2022-11-05T17:39:04.864Z,33.20
2022-11-05T17:41:31.951Z,31.30
2022-11-05T17:43:59.036Z,34.47
2022-11-05T17:46:26.356Z,35.00
2022-11-05T17:48:53.244Z,34.83
2022-11-05T17:51:20.971Z,31.13
2022-11-05T17:53:49.388Z,30.47
2022-11-05T17:56:28.873Z,29.70
2022-11-05T17:59:01.235Z,32.37
2022-11-05T18:01:34.680Z,32.50
2022-11-05T18:04:08.303Z,32.77
2022-11-05T18:06:40.271Z,33.50
2022-11-05T18:09:08.880Z,32.47
2022-11-05T18:11:36.229Z,30.20
2022-11-05T18:14:03.916Z,32.90
2022-11-05T18:16:31.337Z,30.40
2022-11-05T18:18:58.285Z,27.77
2022-11-05T18:21:25.165Z,28.83
2022-11-05T18:23:52.095Z,27.87
2022-11-05T18:26:19.134Z,27.60
2022-11-05T18:28:46.193Z,25.53
2022-11-05T18:31:18.067Z,29.87
2022-11-05T18:33:45.607Z,31.80
2022-11-05T18:36:18.724Z,31.17
2022-11-05T18:38:47.714Z,35.47
2022-11-05T18:41:15.445Z,34.50
2022-11-05T18:43:42.313Z,37.63
2022-11-05T18:46:23.863Z,34.47
2022-11-05T18:48:58.056Z,33.67
2022-11-05T18:51:25.972Z,33.43
2022-11-05T18:53:54.499Z,38.30
2022-11-05T18:56:22.151Z,37.03
2022-11-05T18:58:49.810Z,29.53
2022-11-05T19:01:23.666Z,29.73
2022-11-05T19:03:58.051Z,30.50
2022-11-05T19:06:25.635Z,29.73
2022-11-05T19:08:52.977Z,31.73
2022-11-05T19:11:22.444Z,29.57
2022-11-05T19:13:49.355Z,27.50
2022-11-05T19:16:27.617Z,22.57
2022-11-05T19:18:57.598Z,21.80
2022-11-05T19:21:26.022Z,23.47
2022-11-05T19:23:53.316Z,21.50
2022-11-05T19:26:28.184Z,21.30
2022-11-05T19:28:58.198Z,20.33
2022-11-05T19:31:25.925Z,20.27
2022-11-05T19:33:53.479Z,19.23
2022-11-05T19:36:21.668Z,18.60
2022-11-05T19:38:53.582Z,19.27
2022-11-05T19:41:21.565Z,20.03
2022-11-05T19:43:48.391Z,19.70
2022-11-05T19:46:17.897Z,22.77
2022-11-05T19:48:45.616Z,19.40
2022-11-05T19:51:24.124Z,22.00
2022-11-05T19:53:52.883Z,19.27
2022-11-05T19:56:24.935Z,18.93
2022-11-05T19:58:53.257Z,16.73
2022-11-05T20:01:22.004Z,15.97
2022-11-05T20:03:49.871Z,14.47
2022-11-05T20:06:32.184Z,13.87
2022-11-05T20:11:50.069Z,10.97
2022-11-05T20:14:17.340Z,10.13
2022-11-05T20:16:45.888Z,9.37
2022-11-05T20:19:17.837Z,8.93
2022-11-05T20:21:45.467Z,9.67
2022-11-05T20:24:17.474Z,9.07
2022-11-05T20:26:50.353Z,9.50
2022-11-05T20:29:17.292Z,10.13
2022-11-05T20:31:44.128Z,9.70
2022-11-05T20:34:10.996Z,10.43
2022-11-05T20:36:38.825Z,9.50
2022-11-05T20:39:05.909Z,9.80
2022-11-05T20:41:33.267Z,10.03
2022-11-05T20:44:00.218Z,9.60
2022-11-05T20:46:27.462Z,8.50
2022-11-05T20:48:54.720Z,8.37
2022-11-05T20:51:24.358Z,8.40
2022-11-05T20:53:59.255Z,7.77
2022-11-05T20:56:29.417Z,8.00
2022-11-05T20:58:58.464Z,8.47
2022-11-05T21:01:27.671Z,9.13
2022-11-05T21:03:54.982Z,8.60
2022-11-05T21:06:22.688Z,8.93
2022-11-05T21:08:51.338Z,9.90
2022-11-05T21:11:19.590Z,8.67
2022-11-05T21:13:47.176Z,8.57
2022-11-05T21:16:18.447Z,9.17
2022-11-05T21:18:46.520Z,9.50
2022-11-05T21:21:16.316Z,10.10
2022-11-05T21:23:43.327Z,10.10
2022-11-05T21:26:13.261Z,9.73
2022-11-05T21:28:41.033Z,9.70
2022-11-05T21:31:19.569Z,9.70
2022-11-05T21:33:50.915Z,17.73
2022-11-05T21:36:20.920Z,10.23
2022-11-05T21:38:47.907Z,12.33
2022-11-05T21:43:42.421Z,9.90
2022-11-05T21:46:12.074Z,11.37
2022-11-05T21:48:39.333Z,11.57
2022-11-05T21:51:24.860Z,10.53
2022-11-05T21:54:10.242Z,10.10
2022-11-05T21:56:56.150Z,10.67
2022-11-05T21:59:43.037Z,11.17
2022-11-05T22:02:12.336Z,11.70
2022-11-05T22:04:41.768Z,11.83
2022-11-05T22:07:11.089Z,11.07
2022-11-05T22:09:38.188Z,12.00
2022-11-05T22:12:05.972Z,11.83
2022-11-05T22:14:32.983Z,11.23
2022-11-05T22:17:00.166Z,12.57
2022-11-05T22:19:27.263Z,12.47
2022-11-05T22:21:54.152Z,12.30
2022-11-05T22:24:21.389Z,12.57
2022-11-05T22:26:49.223Z,12.60
2022-11-05T22:29:16.948Z,12.73
2022-11-05T22:31:44.446Z,12.67
2022-11-05T22:34:12.127Z,13.50
2022-11-05T22:36:39.073Z,12.90
2022-11-05T22:39:06.186Z,14.07
2022-11-05T22:41:33.768Z,14.70
2022-11-05T22:44:00.981Z,14.27
2022-11-05T22:46:27.864Z,13.90
2022-11-05T22:48:56.242Z,13.97
2022-11-05T22:51:25.959Z,14.57
2022-11-05T22:53:54.754Z,14.13
2022-11-05T22:56:24.386Z,13.10
2022-11-05T22:58:51.661Z,14.50
2022-11-05T23:01:19.503Z,14.90
2022-11-05T23:03:48.167Z,15.03
2022-11-05T23:06:39.082Z,14.27
2022-11-05T23:09:30.631Z,15.07
2022-11-05T23:11:57.498Z,14.77
2022-11-05T23:14:24.767Z,15.60
2022-11-05T23:17:10.159Z,14.73
2022-11-05T23:19:56.217Z,15.63
2022-11-05T23:22:45.168Z,14.07
2022-11-05T23:25:18.881Z,15.23
2022-11-05T23:27:48.561Z,16.00
2022-11-05T23:30:21.323Z,14.87
2022-11-05T23:32:48.562Z,14.43
2022-11-05T23:35:16.143Z,14.97
2022-11-05T23:38:02.022Z,14.47
2022-11-05T23:40:51.555Z,15.10
2022-11-05T23:43:37.100Z,13.60
2022-11-05T23:46:22.420Z,11.80
2022-11-05T23:48:50.695Z,11.60
2022-11-05T23:51:17.926Z,12.17
2022-11-05T23:53:44.916Z,11.17
2022-11-05T23:56:14.634Z,9.83
2022-11-05T23:58:42.696Z,11.17
